createdAt,value
2022-08-03T00:01:19.070Z,18.67
2022-08-03T00:04:34.227Z,17.67
2022-08-03T00:07:31.955Z,16.87
2022-08-03T00:10:38.740Z,15.98
2022-08-03T00:13:43.930Z,16.77
2022-08-03T00:16:49.378Z,16.23
2022-08-03T00:19:54.091Z,16.67
2022-08-03T00:22:59.743Z,17.50
2022-08-03T00:26:05.278Z,18.62
2022-08-03T00:29:10.806Z,20.52
2022-08-03T00:32:16.703Z,21.90
2022-08-03T00:35:33.451Z,19.07
2022-08-03T00:38:32.871Z,18.55
2022-08-03T00:41:39.854Z,17.87
2022-08-03T00:44:45.439Z,19.15
2022-08-03T00:47:52.008Z,18.35
2022-08-03T00:50:58.682Z,18.40
2022-08-03T00:54:04.645Z,18.35
2022-08-03T00:57:10.626Z,19.50
2022-08-03T01:00:09.162Z,19.92
2022-08-03T01:03:14.727Z,19.87
2022-08-03T01:06:36.150Z,20.65
2022-08-03T01:10:02.192Z,18.30
2022-08-03T01:14:01.559Z,19.17
2022-08-03T01:16:54.024Z,17.55
2022-08-03T01:20:25.324Z,17.55
2022-08-03T01:23:44.267Z,19.82
2022-08-03T01:27:22.758Z,18.35
2022-08-03T01:30:28.854Z,17.77
2022-08-03T01:33:40.748Z,17.25
2022-08-03T01:36:52.962Z,18.00
2022-08-03T01:39:58.724Z,17.65
2022-08-03T01:43:05.177Z,17.48
2022-08-03T01:46:12.002Z,17.10
2022-08-03T01:49:18.440Z,16.65
2022-08-03T01:52:25.691Z,17.73
2022-08-03T01:55:35.386Z,17.10
2022-08-03T01:58:42.110Z,17.40
2022-08-03T02:02:29.892Z,17.20
2022-08-03T02:04:53.882Z,17.73
2022-08-03T02:07:58.624Z,16.55
2022-08-03T02:11:04.625Z,19.37
2022-08-03T02:14:10.404Z,19.02
2022-08-03T02:17:16.136Z,19.48
2022-08-03T02:20:23.695Z,18.25
2022-08-03T02:23:31.439Z,20.08
2022-08-03T02:26:37.505Z,18.75
2022-08-03T02:29:48.346Z,21.23
2022-08-03T02:36:01.088Z,22.07
2022-08-03T02:39:11.884Z,22.30
2022-08-03T02:42:17.733Z,21.30
2022-08-03T02:45:26.251Z,20.32
2022-08-03T02:48:38.022Z,22.35
2022-08-03T02:51:47.768Z,21.02
2022-08-03T02:54:54.145Z,21.05
2022-08-03T02:58:01.278Z,20.45
2022-08-03T03:01:07.957Z,21.57
2022-08-03T03:04:13.993Z,21.48
2022-08-03T03:07:19.726Z,19.65
2022-08-03T03:10:26.499Z,20.68
2022-08-03T03:13:32.207Z,19.67
2022-08-03T03:16:38.103Z,19.75
2022-08-03T03:19:42.923Z,21.27
2022-08-03T03:22:48.886Z,21.15
2022-08-03T03:25:53.546Z,22.75
2022-08-03T03:28:59.312Z,22.22
2022-08-03T03:32:05.678Z,21.82
2022-08-03T03:35:12.321Z,21.65
2022-08-03T03:38:18.170Z,21.93
2022-08-03T03:41:23.874Z,21.45
2022-08-03T03:44:29.318Z,20.75
2022-08-03T03:47:34.851Z,21.10
2022-08-03T03:50:40.203Z,20.48
2022-08-03T03:53:45.966Z,19.62
2022-08-03T04:06:45.796Z,19.77
2022-08-03T04:10:14.394Z,19.25
2022-08-03T04:13:18.527Z,19.67
2022-08-03T04:16:26.671Z,17.65
2022-08-03T04:19:43.254Z,17.67
2022-08-03T04:22:48.894Z,18.73
2022-08-03T04:25:55.010Z,16.97
2022-08-03T04:29:01.516Z,18.40
2022-08-03T04:32:07.492Z,18.42
2022-08-03T04:35:13.155Z,18.60
2022-08-03T04:38:21.103Z,18.52
2022-08-03T04:41:27.045Z,18.90
2022-08-03T04:44:32.216Z,20.90
2022-08-03T04:47:37.468Z,19.35
2022-08-03T04:50:42.811Z,20.50
2022-08-03T04:53:47.884Z,23.10
2022-08-03T04:56:59.495Z,21.12
2022-08-03T05:00:10.435Z,21.65
2022-08-03T05:03:23.505Z,22.13
2022-08-03T05:06:25.679Z,21.90
2022-08-03T05:09:48.926Z,20.68
2022-08-03T05:12:37.997Z,19.02
2022-08-03T05:15:43.697Z,19.60
2022-08-03T05:18:50.041Z,16.50
2022-08-03T05:21:55.502Z,17.82
2022-08-03T05:25:00.850Z,16.15
2022-08-03T05:28:06.576Z,17.80
2022-08-03T05:31:11.932Z,18.12
2022-08-03T05:34:10.692Z,15.80
2022-08-03T05:37:16.304Z,15.85
2022-08-03T05:40:21.958Z,15.15
2022-08-03T05:43:27.229Z,14.73
2022-08-03T05:46:33.872Z,14.43
2022-08-03T05:49:40.373Z,11.90
2022-08-03T05:52:47.065Z,12.18
2022-08-03T05:55:56.136Z,12.23
2022-08-03T05:59:11.564Z,12.30
2022-08-03T06:02:07.563Z,11.93
2022-08-03T06:05:12.019Z,12.78
2022-08-03T06:08:16.901Z,15.88
2022-08-03T06:11:23.203Z,19.45
2022-08-03T06:14:28.494Z,20.52
2022-08-03T06:17:27.627Z,18.40
2022-08-03T06:20:36.696Z,19.35
2022-08-03T06:23:54.015Z,20.20
2022-08-03T06:26:49.202Z,18.65
2022-08-03T06:29:49.474Z,15.65
2022-08-03T06:32:56.425Z,15.25
2022-08-03T06:36:02.264Z,14.98
2022-08-03T06:39:08.194Z,14.90
2022-08-03T06:42:13.871Z,15.18
2022-08-03T06:45:21.848Z,15.38
2022-08-03T06:48:27.405Z,14.25
2022-08-03T06:52:03.000Z,14.55
2022-08-03T06:54:41.134Z,14.15
2022-08-03T06:57:47.243Z,15.20
2022-08-03T07:00:46.692Z,15.28
2022-08-03T07:03:54.176Z,16.73
2022-08-03T07:07:00.153Z,16.05
2022-08-03T07:10:07.147Z,16.10
2022-08-03T07:13:07.118Z,15.18
2022-08-03T07:16:13.387Z,18.50
2022-08-03T07:19:19.108Z,18.05
2022-08-03T07:22:24.766Z,18.73
2022-08-03T07:25:30.402Z,17.05
2022-08-03T07:28:36.212Z,16.32
2022-08-03T07:31:41.944Z,16.62
2022-08-03T07:34:47.993Z,16.50
2022-08-03T07:37:54.533Z,17.17
2022-08-03T07:41:00.609Z,15.88
2022-08-03T07:44:06.515Z,15.45
2022-08-03T07:47:19.347Z,15.80
2022-08-03T07:50:20.538Z,15.28
2022-08-03T07:53:26.034Z,16.10
2022-08-03T07:56:35.292Z,17.02
2022-08-03T08:02:46.191Z,14.05
2022-08-03T08:05:50.642Z,13.18
2022-08-03T08:08:56.302Z,12.80
2022-08-03T08:12:01.216Z,11.83
2022-08-03T08:15:06.496Z,11.12
2022-08-03T08:18:13.762Z,10.80
2022-08-03T08:21:19.246Z,11.88
2022-08-03T08:24:26.890Z,12.53
2022-08-03T08:28:29.190Z,11.78
2022-08-03T08:30:40.636Z,10.80
2022-08-03T08:34:03.783Z,10.85
2022-08-03T08:36:53.518Z,10.30
2022-08-03T08:39:59.737Z,10.23
2022-08-03T08:43:07.665Z,11.38
2022-08-03T08:46:23.286Z,10.95
2022-08-03T08:49:23.352Z,11.00
2022-08-03T08:52:31.996Z,12.25
2022-08-03T08:55:58.300Z,10.08
2022-08-03T08:58:46.793Z,11.22
2022-08-03T09:01:53.137Z,12.43
2022-08-03T09:05:02.950Z,12.33
2022-08-03T09:08:07.135Z,12.47
2022-08-03T09:11:13.054Z,12.30
2022-08-03T09:14:37.028Z,11.35
2022-08-03T09:17:26.912Z,12.28
2022-08-03T09:20:32.532Z,11.78
2022-08-03T09:23:44.681Z,11.38
2022-08-03T09:26:50.067Z,10.58
2022-08-03T09:29:49.909Z,9.05
2022-08-03T09:32:56.243Z,9.73
2022-08-03T09:36:04.157Z,8.83
2022-08-03T09:39:40.467Z,8.13
2022-08-03T09:42:24.252Z,7.85
2022-08-03T09:45:41.308Z,6.90
2022-08-03T09:48:40.837Z,8.38
2022-08-03T09:54:52.526Z,8.25
2022-08-03T09:57:59.097Z,7.67
2022-08-03T10:01:24.160Z,7.50
2022-08-03T10:04:29.927Z,7.00
2022-08-03T10:07:34.549Z,6.67
2022-08-03T10:10:35.863Z,7.20
2022-08-03T10:13:41.813Z,7.03
2022-08-03T10:16:53.178Z,7.33
2022-08-03T10:19:58.784Z,7.28
2022-08-03T10:23:07.110Z,7.08
2022-08-03T10:26:16.698Z,6.60
2022-08-03T10:29:26.513Z,6.33
2022-08-03T10:32:53.604Z,6.47
2022-08-03T10:35:58.651Z,5.47
2022-08-03T10:39:16.375Z,5.62
2022-08-03T10:42:16.375Z,6.05
2022-08-03T10:45:33.719Z,4.87
2022-08-03T10:48:39.090Z,5.30
2022-08-03T10:51:40.938Z,4.90
2022-08-03T10:55:15.783Z,5.00
2022-08-03T10:58:30.283Z,5.37
2022-08-03T11:01:32.244Z,5.22
2022-08-03T11:04:36.556Z,5.00
2022-08-03T11:07:41.930Z,4.80
2022-08-03T11:10:47.354Z,4.50
2022-08-03T11:13:53.142Z,5.20
2022-08-03T11:17:02.042Z,4.70
2022-08-03T11:20:09.067Z,4.17
2022-08-03T11:23:14.747Z,4.58
2022-08-03T11:26:31.463Z,4.70
2022-08-03T11:29:40.257Z,5.05
2022-08-03T11:32:59.462Z,4.40
2022-08-03T11:36:32.562Z,3.80
2022-08-03T11:39:30.047Z,3.50
2022-08-03T11:42:43.563Z,3.62
2022-08-03T11:45:50.816Z,3.70
2022-08-03T11:49:06.513Z,3.83
2022-08-03T11:52:09.966Z,3.42
2022-08-03T11:55:15.840Z,3.60
2022-08-03T11:59:01.813Z,3.12
2022-08-03T12:01:28.252Z,2.72
2022-08-03T12:04:33.976Z,2.85
2022-08-03T12:08:03.046Z,2.70
2022-08-03T12:10:46.277Z,2.40
2022-08-03T12:14:46.317Z,2.80
2022-08-03T12:37:22.852Z,2.35
2022-08-03T12:40:22.177Z,2.15
2022-08-03T12:46:05.802Z,2.22
2022-08-03T12:49:26.856Z,1.95
2022-08-03T12:52:34.673Z,2.30
2022-08-03T12:55:57.285Z,1.65
2022-08-03T12:58:49.946Z,1.90
2022-08-03T13:01:56.177Z,1.72
2022-08-03T13:05:02.375Z,1.65
2022-08-03T13:08:08.418Z,1.60
2022-08-03T13:12:00.964Z,1.55
2022-08-03T13:14:42.712Z,1.40
2022-08-03T13:17:50.308Z,1.57
2022-08-03T13:20:57.807Z,1.45
2022-08-03T13:24:03.392Z,1.57
2022-08-03T13:28:09.863Z,1.57
2022-08-03T13:30:30.122Z,1.50
2022-08-03T13:33:25.454Z,1.42
2022-08-03T13:36:42.745Z,1.30
2022-08-03T13:39:57.882Z,1.50
2022-08-03T13:42:40.600Z,1.50
2022-08-03T13:45:50.380Z,1.22
2022-08-03T13:56:12.443Z,1.40
2022-08-03T13:59:18.606Z,1.70
2022-08-03T14:02:24.265Z,1.32
2022-08-03T14:05:30.164Z,1.42
2022-08-03T14:08:37.782Z,1.35
2022-08-03T14:12:08.379Z,1.30
2022-08-03T14:14:49.898Z,1.32
2022-08-03T14:17:56.366Z,1.25
2022-08-03T14:20:59.620Z,1.40
2022-08-03T14:24:04.784Z,1.30
2022-08-03T14:27:10.737Z,1.05
2022-08-03T14:30:16.227Z,1.00
2022-08-03T14:33:23.203Z,1.02
2022-08-03T14:36:29.277Z,0.90
2022-08-03T14:42:42.048Z,1.32
2022-08-03T14:45:47.842Z,1.05
2022-08-03T14:50:29.229Z,1.02
2022-08-03T14:51:54.196Z,1.15
2022-08-03T14:55:01.024Z,1.10
2022-08-03T14:58:19.766Z,1.17
2022-08-03T15:02:06.488Z,1.15
2022-08-03T15:04:22.311Z,1.12
2022-08-03T15:07:29.653Z,1.05
2022-08-03T15:10:44.605Z,1.32
2022-08-03T15:13:32.662Z,1.17
2022-08-03T15:16:39.340Z,1.27
2022-08-03T15:20:00.474Z,1.32
2022-08-03T15:22:56.783Z,1.15
2022-08-03T15:26:30.553Z,1.30
2022-08-03T15:29:10.806Z,1.25
2022-08-03T15:32:18.210Z,1.40
2022-08-03T15:35:23.874Z,1.60
2022-08-03T15:38:32.566Z,1.32
2022-08-03T15:41:37.851Z,1.20
2022-08-03T15:44:43.956Z,1.20
2022-08-03T15:47:49.400Z,1.40
2022-08-03T15:50:55.273Z,1.40
2022-08-03T15:54:01.310Z,1.47
2022-08-03T15:57:06.886Z,1.17
2022-08-03T16:00:12.393Z,1.45
2022-08-03T16:03:18.510Z,1.42
2022-08-03T16:06:29.617Z,1.37
2022-08-03T16:09:42.098Z,1.40
2022-08-03T16:12:39.511Z,1.47
2022-08-03T16:15:46.226Z,1.50
2022-08-03T16:18:52.620Z,1.85
2022-08-03T16:22:00.207Z,1.70
2022-08-03T16:25:13.974Z,2.05
2022-08-03T16:28:16.384Z,1.87
2022-08-03T16:31:21.618Z,1.80
2022-08-03T16:34:27.139Z,1.92
2022-08-03T16:37:38.644Z,1.62
2022-08-03T16:40:40.143Z,2.27
2022-08-03T16:43:45.870Z,2.10
2022-08-03T16:46:52.693Z,1.85
2022-08-03T16:49:56.284Z,2.00
2022-08-03T16:53:01.486Z,2.10
2022-08-03T16:56:10.868Z,2.42
2022-08-03T16:59:17.204Z,2.47
2022-08-03T17:02:26.210Z,2.83
2022-08-03T17:05:43.705Z,2.40
2022-08-03T17:08:37.274Z,2.12
2022-08-03T17:11:47.175Z,2.83
2022-08-03T17:14:52.030Z,2.22
2022-08-03T17:18:04.850Z,2.27
2022-08-03T17:21:10.494Z,2.47
2022-08-03T17:24:28.749Z,2.50
2022-08-03T17:28:49.150Z,2.20
2022-08-03T17:31:23.058Z,2.35
2022-08-03T17:34:14.581Z,2.25
2022-08-03T17:37:50.692Z,2.02
2022-08-03T17:40:27.535Z,2.22
2022-08-03T17:44:13.420Z,2.22
2022-08-03T17:46:42.000Z,2.85
2022-08-03T17:49:50.531Z,2.47
2022-08-03T17:52:57.038Z,2.98
2022-08-03T17:56:44.372Z,3.08
2022-08-03T17:59:51.472Z,3.10
2022-08-03T18:03:22.722Z,3.10
2022-08-03T18:06:29.866Z,3.12
2022-08-03T18:10:06.181Z,3.22
2022-08-03T18:12:43.591Z,3.12
2022-08-03T18:15:54.375Z,3.33
2022-08-03T18:22:09.980Z,3.00
2022-08-03T18:25:16.033Z,3.60
2022-08-03T18:28:23.397Z,3.17
2022-08-03T18:32:03.806Z,3.65
2022-08-03T18:34:41.092Z,3.90
2022-08-03T18:37:51.972Z,3.60
2022-08-03T18:44:06.857Z,3.60
2022-08-03T18:47:17.834Z,3.40
2022-08-03T18:50:49.841Z,3.58
2022-08-03T18:54:05.880Z,3.92
2022-08-03T18:57:11.849Z,3.77
2022-08-03T19:00:24.372Z,3.85
2022-08-03T19:06:38.545Z,4.95
2022-08-03T19:10:15.750Z,5.47
2022-08-03T19:13:30.956Z,5.85
2022-08-03T19:16:42.835Z,7.65
2022-08-03T19:19:49.573Z,7.22
2022-08-03T19:22:55.201Z,7.67
2022-08-03T19:26:00.936Z,7.42
2022-08-03T19:28:59.453Z,8.43
2022-08-03T19:32:05.697Z,8.00
2022-08-03T19:35:18.973Z,8.23
2022-08-03T19:38:27.515Z,8.40
2022-08-03T19:41:27.101Z,7.78
2022-08-03T19:44:41.260Z,9.13
2022-08-03T19:48:09.735Z,8.55
2022-08-03T19:51:13.419Z,8.93
2022-08-03T19:54:29.714Z,9.10
2022-08-03T19:57:32.109Z,7.80
2022-08-03T20:00:38.241Z,9.50
2022-08-03T20:03:43.872Z,9.85
2022-08-03T20:06:50.498Z,10.95
2022-08-03T20:09:57.365Z,9.98
2022-08-03T20:13:03.401Z,10.80
2022-08-03T20:16:08.941Z,9.25
2022-08-03T20:19:17.689Z,9.33
2022-08-03T20:22:27.750Z,10.03
2022-08-03T20:25:38.366Z,11.63
2022-08-03T20:28:50.390Z,11.05
2022-08-03T20:31:55.104Z,11.00
2022-08-03T20:35:01.378Z,10.88
2022-08-03T20:38:07.768Z,10.75
2022-08-03T20:41:13.483Z,9.78
2022-08-03T20:44:25.580Z,10.43
2022-08-03T20:47:26.682Z,9.63
2022-08-03T20:50:33.807Z,9.88
2022-08-03T20:53:57.092Z,11.33
2022-08-03T20:56:49.828Z,11.57
2022-08-03T20:59:55.166Z,11.43
2022-08-03T21:03:00.906Z,10.65
2022-08-03T21:06:07.246Z,11.03
2022-08-03T21:09:17.996Z,11.43
2022-08-03T21:12:26.967Z,10.10
2022-08-03T21:13:05.062Z,3.42
2022-08-03T21:13:09.523Z,4.78
2022-08-03T21:16:02.623Z,9.15
2022-08-03T21:18:37.377Z,8.95
2022-08-03T21:21:46.637Z,9.58
2022-08-03T21:24:50.366Z,8.55
2022-08-03T21:27:55.346Z,8.30
2022-08-03T21:31:01.718Z,7.95
2022-08-03T21:34:06.817Z,7.80
2022-08-03T21:37:12.038Z,7.47
2022-08-03T21:40:12.892Z,7.17
2022-08-03T21:43:18.722Z,7.83
2022-08-03T21:46:24.422Z,7.33
2022-08-03T21:50:04.559Z,7.12
2022-08-03T21:52:37.392Z,7.12
2022-08-03T21:55:43.952Z,7.58
2022-08-03T21:59:05.411Z,6.80
2022-08-03T22:02:20.025Z,7.67
2022-08-03T22:05:17.225Z,6.83
2022-08-03T22:08:27.349Z,7.87
2022-08-03T22:11:28.065Z,7.42
2022-08-03T22:14:34.825Z,7.78
2022-08-03T22:17:54.796Z,7.62
2022-08-03T22:20:47.494Z,8.23
2022-08-03T22:24:01.238Z,8.33
2022-08-03T22:27:26.810Z,6.97
2022-08-03T22:30:34.173Z,8.25
2022-08-03T22:33:39.775Z,8.38
2022-08-03T22:36:46.354Z,8.30
2022-08-03T22:39:52.635Z,8.70
2022-08-03T22:42:59.429Z,8.73
2022-08-03T22:46:11.557Z,7.85
2022-08-03T22:49:13.058Z,8.30
2022-08-03T22:52:18.714Z,8.20
2022-08-03T22:55:27.175Z,8.25
2022-08-03T22:58:33.751Z,8.68
2022-08-03T23:01:32.184Z,9.20
2022-08-03T23:04:26.024Z,9.35
2022-08-03T23:10:42.585Z,8.78
2022-08-03T23:13:47.940Z,9.55
2022-08-03T23:16:55.367Z,10.18
2022-08-03T23:20:00.998Z,10.00
2022-08-03T23:23:07.771Z,9.65
2022-08-03T23:26:14.661Z,10.82
2022-08-03T23:29:21.740Z,10.30
2022-08-03T23:32:21.128Z,10.10
2022-08-03T23:36:20.090Z,10.40
2022-08-03T23:38:23.336Z,9.38
2022-08-03T23:41:11.526Z,9.60
2022-08-03T23:44:04.338Z,9.20
2022-08-03T23:46:49.825Z,9.68
2022-08-03T23:49:41.973Z,9.75
2022-08-03T23:52:37.376Z,10.25
2022-08-03T23:55:55.776Z,11.00
2022-08-03T23:59:05.984Z,10.95
